sensor_id;sensor_type;location;lat;lon;timestamp;pressure;altitude;pressure_sealevel;temperature;humidity
9721;BME280;4899;42.644;23.366;2023-05-08T00:02:17;94416.75;;;13.29;100.00
9721;BME280;4899;42.644;23.366;2023-05-08T00:04:42;94429.34;;;13.30;100.00
9721;BME280;4899;42.644;23.366;2023-05-08T00:07:08;94423.19;;;13.22;100.00
9721;BME280;4899;42.644;23.366;2023-05-08T00:09:33;94419.75;;;13.18;100.00
9721;BME280;4899;42.644;23.366;2023-05-08T00:11:58;94429.00;;;13.19;100.00
9721;BME280;4899;42.644;23.366;2023-05-08T00:14:24;94425.38;;;13.12;100.00
9721;BME280;4899;42.644;23.366;2023-05-08T00:16:49;94421.03;;;13.04;100.00
9721;BME280;4899;42.644;23.366;2023-05-08T00:19:15;94433.53;;;13.02;100.00
9721;BME280;4899;42.644;23.366;2023-05-08T00:21:40;94432.88;;;13.05;100.00
9721;BME280;4899;42.644;23.366;2023-05-08T00:24:06;94433.63;;;13.05;100.00
9721;BME280;4899;42.644;23.366;2023-05-08T00:26:31;94433.22;;;13.03;100.00
9721;BME280;4899;42.644;23.366;2023-05-08T00:28:57;94429.44;;;13.01;100.00
9721;BME280;4899;42.644;23.366;2023-05-08T00:31:22;94427.84;;;12.87;100.00
9721;BME280;4899;42.644;23.366;2023-05-08T00:33:48;94425.28;;;12.67;100.00
9721;BME280;4899;42.644;23.366;2023-05-08T00:36:13;94445.09;;;12.75;100.00
9721;BME280;4899;42.644;23.366;2023-05-08T00:38:40;94429.09;;;12.60;100.00
9721;BME280;4899;42.644;23.366;2023-05-08T00:41:05;94443.19;;;12.63;100.00
9721;BME280;4899;42.644;23.366;2023-05-08T00:43:31;94431.25;;;12.58;100.00
9721;BME280;4899;42.644;23.366;2023-05-08T00:45:59;94437.28;;;12.62;100.00
9721;BME280;4899;42.644;23.366;2023-05-08T00:48:28;94432.00;;;12.59;100.00
9721;BME280;4899;42.644;23.366;2023-05-08T00:50:55;94432.63;;;12.56;100.00
9721;BME280;4899;42.644;23.366;2023-05-08T00:53:21;94439.47;;;12.52;100.00
9721;BME280;4899;42.644;23.366;2023-05-08T00:55:48;94424.69;;;12.40;100.00
9721;BME280;4899;42.644;23.366;2023-05-08T00:58:14;94430.09;;;12.47;100.00
9721;BME280;4899;42.644;23.366;2023-05-08T01:00:43;94433.03;;;12.37;100.00
9721;BME280;4899;42.644;23.366;2023-05-08T01:03:10;94429.13;;;12.31;100.00
9721;BME280;4899;42.644;23.366;2023-05-08T01:05:36;94427.47;;;12.26;100.00
9721;BME280;4899;42.644;23.366;2023-05-08T01:08:02;94439.38;;;12.19;100.00
9721;BME280;4899;42.644;23.366;2023-05-08T01:10:46;94450.75;;;12.09;100.00
9721;BME280;4899;42.644;23.366;2023-05-08T01:16:08;94450.63;;;12.06;100.00
9721;BME280;4899;42.644;23.366;2023-05-08T01:18:44;94447.59;;;12.04;100.00
9721;BME280;4899;42.644;23.366;2023-05-08T01:21:23;94456.06;;;12.13;100.00
9721;BME280;4899;42.644;23.366;2023-05-08T01:24:10;94463.03;;;12.12;100.00
9721;BME280;4899;42.644;23.366;2023-05-08T01:26:57;94454.84;;;12.10;100.00
9721;BME280;4899;42.644;23.366;2023-05-08T01:32:35;94448.22;;;12.00;100.00
9721;BME280;4899;42.644;23.366;2023-05-08T01:37:44;94444.63;;;11.84;100.00
9721;BME280;4899;42.644;23.366;2023-05-08T01:40:20;94445.88;;;11.69;100.00
9721;BME280;4899;42.644;23.366;2023-05-08T01:45:33;94440.25;;;11.76;100.00
9721;BME280;4899;42.644;23.366;2023-05-08T01:48:11;94432.84;;;11.66;100.00
9721;BME280;4899;42.644;23.366;2023-05-08T01:50:42;94439.97;;;11.69;100.00
9721;BME280;4899;42.644;23.366;2023-05-08T01:53:19;94430.41;;;11.69;100.00
9721;BME280;4899;42.644;23.366;2023-05-08T01:55:47;94422.25;;;11.67;100.00
9721;BME280;4899;42.644;23.366;2023-05-08T01:58:15;94433.13;;;11.73;100.00
9721;BME280;4899;42.644;23.366;2023-05-08T02:00:43;94422.56;;;11.66;100.00
9721;BME280;4899;42.644;23.366;2023-05-08T02:03:10;94418.91;;;11.67;100.00
9721;BME280;4899;42.644;23.366;2023-05-08T02:05:38;94433.13;;;11.73;100.00
9721;BME280;4899;42.644;23.366;2023-05-08T02:08:07;94439.03;;;11.74;100.00
9721;BME280;4899;42.644;23.366;2023-05-08T02:10:34;94429.22;;;11.67;100.00
9721;BME280;4899;42.644;23.366;2023-05-08T02:13:03;94421.81;;;11.57;100.00
9721;BME280;4899;42.644;23.366;2023-05-08T02:15:30;94425.28;;;11.61;100.00
9721;BME280;4899;42.644;23.366;2023-05-08T02:18:01;94434.38;;;11.67;100.00
9721;BME280;4899;42.644;23.366;2023-05-08T02:20:28;94432.84;;;11.66;100.00
9721;BME280;4899;42.644;23.366;2023-05-08T02:22:55;94445.56;;;11.62;100.00
9721;BME280;4899;42.644;23.366;2023-05-08T02:25:21;94410.94;;;11.34;100.00
9721;BME280;4899;42.644;23.366;2023-05-08T02:27:48;94441.66;;;11.56;100.00
9721;BME280;4899;42.644;23.366;2023-05-08T02:30:16;94441.03;;;11.59;100.00
9721;BME280;4899;42.644;23.366;2023-05-08T02:32:46;94442.41;;;11.65;100.00
9721;BME280;4899;42.644;23.366;2023-05-08T02:35:18;94441.47;;;11.61;100.00
9721;BME280;4899;42.644;23.366;2023-05-08T02:37:47;94436.19;;;11.58;100.00
9721;BME280;4899;42.644;23.366;2023-05-08T02:40:16;94444.38;;;11.60;100.00
9721;BME280;4899;42.644;23.366;2023-05-08T02:42:42;94431.03;;;11.58;100.00
9721;BME280;4899;42.644;23.366;2023-05-08T02:45:08;94438.00;;;11.66;100.00
9721;BME280;4899;42.644;23.366;2023-05-08T02:47:43;94448.16;;;11.71;100.00
9721;BME280;4899;42.644;23.366;2023-05-08T02:50:37;94433.91;;;11.65;100.00
9721;BME280;4899;42.644;23.366;2023-05-08T02:53:10;94446.78;;;11.74;100.00
9721;BME280;4899;42.644;23.366;2023-05-08T02:55:47;94446.31;;;11.71;100.00
9721;BME280;4899;42.644;23.366;2023-05-08T02:58:21;94455.72;;;11.76;100.00
9721;BME280;4899;42.644;23.366;2023-05-08T03:00:51;94461.66;;;11.68;100.00
9721;BME280;4899;42.644;23.366;2023-05-08T03:03:34;94450.72;;;11.62;100.00
9721;BME280;4899;42.644;23.366;2023-05-08T03:06:03;94451.97;;;11.65;100.00
9721;BME280;4899;42.644;23.366;2023-05-08T03:08:34;94431.03;;;11.58;100.00
9721;BME280;4899;42.644;23.366;2023-05-08T03:11:04;94443.75;;;11.63;100.00
9721;BME280;4899;42.644;23.366;2023-05-08T03:13:33;94443.16;;;11.66;100.00
9721;BME280;4899;42.644;23.366;2023-05-08T03:16:01;94441.94;;;11.63;100.00
9721;BME280;4899;42.644;23.366;2023-05-08T03:18:34;94454.81;;;11.63;100.00
9721;BME280;4899;42.644;23.366;2023-05-08T03:21:00;94450.41;;;11.64;100.00
9721;BME280;4899;42.644;23.366;2023-05-08T03:23:28;94453.91;;;11.68;100.00
9721;BME280;4899;42.644;23.366;2023-05-08T03:25:57;94464.50;;;11.75;100.00
9721;BME280;4899;42.644;23.366;2023-05-08T03:28:23;94453.91;;;11.68;100.00
9721;BME280;4899;42.644;23.366;2023-05-08T03:30:49;94468.59;;;11.76;100.00
9721;BME280;4899;42.644;23.366;2023-05-08T03:33:16;94464.06;;;11.73;100.00
9721;BME280;4899;42.644;23.366;2023-05-08T03:35:42;94466.50;;;11.78;100.00
9721;BME280;4899;42.644;23.366;2023-05-08T03:38:08;94452.25;;;11.72;100.00
9721;BME280;4899;42.644;23.366;2023-05-08T03:40:34;94467.22;;;11.87;100.00
9721;BME280;4899;42.644;23.366;2023-05-08T03:43:01;94469.78;;;11.87;100.00
9721;BME280;4899;42.644;23.366;2023-05-08T03:45:29;94454.31;;;11.87;100.00
9721;BME280;4899;42.644;23.366;2023-05-08T03:47:55;94467.81;;;11.93;100.00
9721;BME280;4899;42.644;23.366;2023-05-08T03:50:23;94461.28;;;11.95;100.00
9721;BME280;4899;42.644;23.366;2023-05-08T03:52:49;94452.19;;;11.89;100.00
9721;BME280;4899;42.644;23.366;2023-05-08T03:55:14;94466.44;;;11.95;100.00
9721;BME280;4899;42.644;23.366;2023-05-08T03:57:49;94458.53;;;12.00;100.00
9721;BME280;4899;42.644;23.366;2023-05-08T04:00:30;94469.91;;;11.99;100.00
9721;BME280;4899;42.644;23.366;2023-05-08T04:03:20;94470.63;;;12.09;100.00
9721;BME280;4899;42.644;23.366;2023-05-08T04:06:00;94478.19;;;12.14;100.00
9721;BME280;4899;42.644;23.366;2023-05-08T04:08:28;94481.84;;;12.13;100.00
9721;BME280;4899;42.644;23.366;2023-05-08T04:11:22;94483.97;;;12.11;100.00
9721;BME280;4899;42.644;23.366;2023-05-08T04:13:53;94483.34;;;12.14;100.00
9721;BME280;4899;42.644;23.366;2023-05-08T04:16:23;94481.69;;;12.18;100.00
9721;BME280;4899;42.644;23.366;2023-05-08T04:18:57;94483.06;;;12.15;100.00
9721;BME280;4899;42.644;23.366;2023-05-08T04:21:28;94485.47;;;12.20;100.00
9721;BME280;4899;42.644;23.366;2023-05-08T04:23:55;94491.03;;;12.31;100.00
9721;BME280;4899;42.644;23.366;2023-05-08T04:26:21;94491.97;;;12.26;100.00
9721;BME280;4899;42.644;23.366;2023-05-08T04:28:47;94482.13;;;12.20;100.00
9721;BME280;4899;42.644;23.366;2023-05-08T04:31:14;94486.94;;;12.30;100.00
9721;BME280;4899;42.644;23.366;2023-05-08T04:33:43;94496.91;;;12.40;100.00
9721;BME280;4899;42.644;23.366;2023-05-08T04:36:13;94492.66;;;12.44;100.00
9721;BME280;4899;42.644;23.366;2023-05-08T04:38:39;94487.03;;;12.42;100.00
9721;BME280;4899;42.644;23.366;2023-05-08T04:41:06;94482.59;;;12.51;100.00
9721;BME280;4899;42.644;23.366;2023-05-08T04:43:32;94481.78;;;12.59;100.00
9721;BME280;4899;42.644;23.366;2023-05-08T04:45:57;94473.13;;;12.64;100.00
9721;BME280;4899;42.644;23.366;2023-05-08T04:48:23;94474.38;;;12.79;100.00
9721;BME280;4899;42.644;23.366;2023-05-08T04:50:49;94481.78;;;12.89;100.00
9721;BME280;4899;42.644;23.366;2023-05-08T04:53:14;94474.47;;;12.91;100.00
9721;BME280;4899;42.644;23.366;2023-05-08T04:55:40;94475.16;;;13.00;100.00
9721;BME280;4899;42.644;23.366;2023-05-08T04:58:06;94465.06;;;13.07;100.00
9721;BME280;4899;42.644;23.366;2023-05-08T05:00:31;94477.75;;;13.21;100.00
9721;BME280;4899;42.644;23.366;2023-05-08T05:02:57;94475.84;;;13.30;100.00
9721;BME280;4899;42.644;23.366;2023-05-08T05:05:23;94469.56;;;13.40;100.00
9721;BME280;4899;42.644;23.366;2023-05-08T05:07:48;94464.41;;;13.40;100.00
9721;BME280;4899;42.644;23.366;2023-05-08T05:10:14;94473.03;;;13.44;100.00
9721;BME280;4899;42.644;23.366;2023-05-08T05:12:39;94473.03;;;13.56;100.00
9721;BME280;4899;42.644;23.366;2023-05-08T05:15:05;94460.38;;;13.63;100.00
9721;BME280;4899;42.644;23.366;2023-05-08T05:17:31;94466.09;;;13.69;100.00
9721;BME280;4899;42.644;23.366;2023-05-08T05:19:57;94469.97;;;13.75;100.00
9721;BME280;4899;42.644;23.366;2023-05-08T05:22:23;94467.41;;;13.87;100.00
9721;BME280;4899;42.644;23.366;2023-05-08T05:24:49;94465.19;;;13.98;100.00
9721;BME280;4899;42.644;23.366;2023-05-08T05:27:14;94455.47;;;13.95;100.00
9721;BME280;4899;42.644;23.366;2023-05-08T05:29:40;94463.78;;;14.12;100.00
9721;BME280;4899;42.644;23.366;2023-05-08T05:32:05;94471.78;;;14.20;100.00
9721;BME280;4899;42.644;23.366;2023-05-08T05:34:33;94467.03;;;14.22;100.00
9721;BME280;4899;42.644;23.366;2023-05-08T05:36:59;94462.38;;;14.27;100.00
9721;BME280;4899;42.644;23.366;2023-05-08T05:39:24;94464.44;;;14.34;100.00
9721;BME280;4899;42.644;23.366;2023-05-08T05:41:49;94472.75;;;14.39;100.00
9721;BME280;4899;42.644;23.366;2023-05-08T05:44:15;94466.75;;;14.48;100.00
9721;BME280;4899;42.644;23.366;2023-05-08T05:46:40;94470.38;;;14.59;100.00
9721;BME280;4899;42.644;23.366;2023-05-08T05:49:06;94456.59;;;14.67;100.00
9721;BME280;4899;42.644;23.366;2023-05-08T05:51:31;94467.66;;;14.80;100.00
9721;BME280;4899;42.644;23.366;2023-05-08T05:53:57;94471.53;;;14.86;100.00
9721;BME280;4899;42.644;23.366;2023-05-08T05:56:22;94457.72;;;14.82;100.00
9721;BME280;4899;42.644;23.366;2023-05-08T05:58:48;94470.28;;;15.07;100.00
9721;BME280;4899;42.644;23.366;2023-05-08T06:01:13;94456.69;;;15.11;100.00
9721;BME280;4899;42.644;23.366;2023-05-08T06:03:39;94466.13;;;15.31;100.00
9721;BME280;4899;42.644;23.366;2023-05-08T06:06:05;94455.72;;;15.43;100.00
9721;BME280;4899;42.644;23.366;2023-05-08T06:08:30;94459.97;;;15.63;100.00
9721;BME280;4899;42.644;23.366;2023-05-08T06:10:56;94459.97;;;15.63;100.00
9721;BME280;4899;42.644;23.366;2023-05-08T06:13:21;94461.66;;;15.72;100.00
9721;BME280;4899;42.644;23.366;2023-05-08T06:15:46;94456.50;;;15.87;100.00
9721;BME280;4899;42.644;23.366;2023-05-08T06:18:13;94451.72;;;15.89;100.00
9721;BME280;4899;42.644;23.366;2023-05-08T06:20:38;94467.63;;;16.04;100.00
9721;BME280;4899;42.644;23.366;2023-05-08T06:23:04;94462.44;;;16.19;100.00
9721;BME280;4899;42.644;23.366;2023-05-08T06:25:30;94456.16;;;16.36;100.00
9721;BME280;4899;42.644;23.366;2023-05-08T06:27:55;94446.41;;;16.49;100.00
9721;BME280;4899;42.644;23.366;2023-05-08T06:30:22;94453.47;;;16.83;100.00
9721;BME280;4899;42.644;23.366;2023-05-08T06:32:47;94455.56;;;16.94;100.00
9721;BME280;4899;42.644;23.366;2023-05-08T06:35:13;94452.19;;;16.93;100.00
9721;BME280;4899;42.644;23.366;2023-05-08T06:37:44;94459.44;;;17.03;100.00
9721;BME280;4899;42.644;23.366;2023-05-08T06:40:10;94456.78;;;17.19;100.00
9721;BME280;4899;42.644;23.366;2023-05-08T06:42:36;94457.06;;;17.33;100.00
9721;BME280;4899;42.644;23.366;2023-05-08T06:45:02;94455.19;;;17.53;97.52
9721;BME280;4899;42.644;23.366;2023-05-08T06:47:27;94455.00;;;17.62;97.57
9721;BME280;4899;42.644;23.366;2023-05-08T06:49:53;94459.00;;;17.59;97.17
9721;BME280;4899;42.644;23.366;2023-05-08T06:52:19;94454.56;;;17.60;94.79
9721;BME280;4899;42.644;23.366;2023-05-08T06:54:45;94469.97;;;17.88;92.51
9721;BME280;4899;42.644;23.366;2023-05-08T06:57:10;94468.22;;;18.18;89.14
9721;BME280;4899;42.644;23.366;2023-05-08T06:59:39;94464.06;;;18.36;86.18
9721;BME280;4899;42.644;23.366;2023-05-08T07:02:04;94468.66;;;18.47;87.27
9721;BME280;4899;42.644;23.366;2023-05-08T07:04:30;94461.19;;;18.45;87.37
9721;BME280;4899;42.644;23.366;2023-05-08T07:06:55;94460.84;;;18.47;85.40
9721;BME280;4899;42.644;23.366;2023-05-08T07:09:20;94469.41;;;18.47;83.70
9721;BME280;4899;42.644;23.366;2023-05-08T07:11:46;94471.63;;;18.45;83.65
9721;BME280;4899;42.644;23.366;2023-05-08T07:14:12;94472.28;;;18.38;83.83
9721;BME280;4899;42.644;23.366;2023-05-08T07:16:37;94466.91;;;18.54;81.25
9721;BME280;4899;42.644;23.366;2023-05-08T07:19:03;94466.13;;;18.77;79.97
9721;BME280;4899;42.644;23.366;2023-05-08T07:21:28;94469.00;;;18.98;77.13
9721;BME280;4899;42.644;23.366;2023-05-08T07:23:55;94469.59;;;19.14;75.83
9721;BME280;4899;42.644;23.366;2023-05-08T07:26:20;94480.97;;;19.32;73.18
9721;BME280;4899;42.644;23.366;2023-05-08T07:28:47;94456.31;;;19.26;71.58
9721;BME280;4899;42.644;23.366;2023-05-08T07:31:13;94472.13;;;19.41;71.32
9721;BME280;4899;42.644;23.366;2023-05-08T07:33:38;94457.97;;;19.42;71.79
9721;BME280;4899;42.644;23.366;2023-05-08T07:36:05;94470.91;;;19.61;70.14
9721;BME280;4899;42.644;23.366;2023-05-08T07:38:30;94471.59;;;19.95;67.34
9721;BME280;4899;42.644;23.366;2023-05-08T07:40:56;94472.50;;;20.13;64.90
9721;BME280;4899;42.644;23.366;2023-05-08T07:43:22;94476.53;;;20.07;64.47
9721;BME280;4899;42.644;23.366;2023-05-08T07:45:48;94468.75;;;20.11;64.47
9721;BME280;4899;42.644;23.366;2023-05-08T07:48:13;94475.34;;;20.42;62.11
9721;BME280;4899;42.644;23.366;2023-05-08T07:50:39;94475.66;;;20.33;61.62
9721;BME280;4899;42.644;23.366;2023-05-08T07:53:04;94476.34;;;20.30;61.21
9721;BME280;4899;42.644;23.366;2023-05-08T07:55:30;94482.44;;;20.41;60.68
9721;BME280;4899;42.644;23.366;2023-05-08T07:57:55;94483.50;;;20.33;60.33
9721;BME280;4899;42.644;23.366;2023-05-08T08:00:21;94487.63;;;20.38;60.22
9721;BME280;4899;42.644;23.366;2023-05-08T08:02:46;94494.97;;;20.25;60.40
9721;BME280;4899;42.644;23.366;2023-05-08T08:05:12;94496.03;;;20.17;60.18
9721;BME280;4899;42.644;23.366;2023-05-08T08:07:37;94498.16;;;20.04;62.37
9721;BME280;4899;42.644;23.366;2023-05-08T08:10:03;94484.31;;;20.00;60.74
9721;BME280;4899;42.644;23.366;2023-05-08T08:12:28;94495.59;;;20.08;60.34
9721;BME280;4899;42.644;23.366;2023-05-08T08:14:55;94480.50;;;20.35;58.84
9721;BME280;4899;42.644;23.366;2023-05-08T08:17:20;94480.78;;;20.74;57.71
9721;BME280;4899;42.644;23.366;2023-05-08T08:19:46;94480.81;;;20.77;57.83
9721;BME280;4899;42.644;23.366;2023-05-08T08:22:11;94489.50;;;20.92;58.31
9721;BME280;4899;42.644;23.366;2023-05-08T08:24:37;94485.09;;;21.07;57.29
9721;BME280;4899;42.644;23.366;2023-05-08T08:27:02;94478.75;;;21.08;56.43
9721;BME280;4899;42.644;23.366;2023-05-08T08:29:29;94485.13;;;21.17;56.57
9721;BME280;4899;42.644;23.366;2023-05-08T08:31:54;94480.00;;;21.32;56.07
9721;BME280;4899;42.644;23.366;2023-05-08T08:34:20;94475.91;;;21.38;55.83
9721;BME280;4899;42.644;23.366;2023-05-08T08:36:46;94474.81;;;21.42;55.59
9721;BME280;4899;42.644;23.366;2023-05-08T08:39:11;94480.09;;;21.67;54.75
9721;BME280;4899;42.644;23.366;2023-05-08T08:41:39;94472.25;;;21.60;54.29
9721;BME280;4899;42.644;23.366;2023-05-08T08:44:05;94472.97;;;21.57;54.95
9721;BME280;4899;42.644;23.366;2023-05-08T08:46:31;94464.03;;;21.65;54.28
9721;BME280;4899;42.644;23.366;2023-05-08T08:49:03;94476.00;;;21.66;54.25
9721;BME280;4899;42.644;23.366;2023-05-08T08:51:39;94458.38;;;21.56;54.04
9721;BME280;4899;42.644;23.366;2023-05-08T08:54:10;94463.59;;;21.45;55.11
9721;BME280;4899;42.644;23.366;2023-05-08T08:56:40;94460.22;;;21.52;54.77
9721;BME280;4899;42.644;23.366;2023-05-08T08:59:10;94464.03;;;21.65;55.14
9721;BME280;4899;42.644;23.366;2023-05-08T09:01:38;94448.31;;;21.79;54.94
9721;BME280;4899;42.644;23.366;2023-05-08T09:04:05;94446.09;;;21.85;55.42
9721;BME280;4899;42.644;23.366;2023-05-08T09:06:34;94446.06;;;21.71;56.02
9721;BME280;4899;42.644;23.366;2023-05-08T09:09:00;94432.97;;;21.60;55.89
9721;BME280;4899;42.644;23.366;2023-05-08T09:11:26;94444.56;;;21.59;56.03
9721;BME280;4899;42.644;23.366;2023-05-08T09:13:54;94434.03;;;21.45;57.09
9721;BME280;4899;42.644;23.366;2023-05-08T09:16:20;94426.94;;;21.38;57.08
9721;BME280;4899;42.644;23.366;2023-05-08T09:18:45;94436.66;;;21.45;57.26
9721;BME280;4899;42.644;23.366;2023-05-08T09:21:11;94417.97;;;21.43;57.65
9721;BME280;4899;42.644;23.366;2023-05-08T09:23:59;94421.69;;;21.42;57.48
9721;BME280;4899;42.644;23.366;2023-05-08T09:29:17;94414.59;;;21.39;57.35
9721;BME280;4899;42.644;23.366;2023-05-08T09:34:12;94415.03;;;21.69;57.20
9721;BME280;4899;42.644;23.366;2023-05-08T09:36:48;94401.94;;;21.80;57.78
9721;BME280;4899;42.644;23.366;2023-05-08T09:39:21;94390.72;;;22.01;58.02
9721;BME280;4899;42.644;23.366;2023-05-08T09:42:00;94402.34;;;22.18;57.66
9721;BME280;4899;42.644;23.366;2023-05-08T09:44:42;94411.69;;;22.36;56.97
9721;BME280;4899;42.644;23.366;2023-05-08T09:47:10;94416.91;;;22.51;56.64
9721;BME280;4899;42.644;23.366;2023-05-08T09:49:35;94419.13;;;22.63;55.15
9721;BME280;4899;42.644;23.366;2023-05-08T09:52:01;94429.19;;;22.79;54.63
9721;BME280;4899;42.644;23.366;2023-05-08T09:54:27;94427.38;;;22.65;54.36
9721;BME280;4899;42.644;23.366;2023-05-08T09:56:53;94426.97;;;22.84;53.95
9721;BME280;4899;42.644;23.366;2023-05-08T10:01:48;94433.44;;;23.60;52.51
9721;BME280;4899;42.644;23.366;2023-05-08T10:04:14;94440.78;;;23.83;52.08
9721;BME280;4899;42.644;23.366;2023-05-08T10:06:39;94429.75;;;24.02;51.37
9721;BME280;4899;42.644;23.366;2023-05-08T10:09:13;94427.81;;;24.13;50.46
9721;BME280;4899;42.644;23.366;2023-05-08T10:11:39;94419.91;;;24.13;51.40
9721;BME280;4899;42.644;23.366;2023-05-08T10:14:05;94429.38;;;24.07;52.15
9721;BME280;4899;42.644;23.366;2023-05-08T10:16:35;94425.41;;;23.78;50.94
9721;BME280;4899;42.644;23.366;2023-05-08T10:19:05;94423.19;;;23.76;51.44
9721;BME280;4899;42.644;23.366;2023-05-08T10:21:36;94417.16;;;23.83;51.24
9721;BME280;4899;42.644;23.366;2023-05-08T10:24:04;94417.44;;;23.92;50.72
9721;BME280;4899;42.644;23.366;2023-05-08T10:26:32;94421.44;;;24.11;50.68
9721;BME280;4899;42.644;23.366;2023-05-08T10:29:06;94409.53;;;23.96;49.74
9721;BME280;4899;42.644;23.366;2023-05-08T10:31:34;94409.47;;;24.03;50.53
9721;BME280;4899;42.644;23.366;2023-05-08T10:34:02;94404.22;;;24.03;50.67
9721;BME280;4899;42.644;23.366;2023-05-08T10:36:29;94398.59;;;24.01;50.74
9721;BME280;4899;42.644;23.366;2023-05-08T10:38:57;94409.66;;;23.78;51.12
9721;BME280;4899;42.644;23.366;2023-05-08T10:41:22;94408.53;;;23.79;50.98
9721;BME280;4899;42.644;23.366;2023-05-08T10:43:49;94409.72;;;23.71;51.37
9721;BME280;4899;42.644;23.366;2023-05-08T10:57:18;94387.16;;;24.97;49.41
9721;BME280;4899;42.644;23.366;2023-05-08T10:59:46;94389.97;;;24.82;49.13
9721;BME280;4899;42.644;23.366;2023-05-08T11:02:13;94387.22;;;24.59;49.08
9721;BME280;4899;42.644;23.366;2023-05-08T11:04:39;94379.59;;;24.68;49.32
9721;BME280;4899;42.644;23.366;2023-05-08T11:07:05;94379.31;;;24.93;49.18
9721;BME280;4899;42.644;23.366;2023-05-08T11:14:53;94372.75;;;26.99;46.10
9721;BME280;4899;42.644;23.366;2023-05-08T11:17:23;94365.63;;;26.76;46.00
9721;BME280;4899;42.644;23.366;2023-05-08T11:20:03;94359.00;;;26.88;44.36
9721;BME280;4899;42.644;23.366;2023-05-08T11:22:35;94363.66;;;27.72;44.29
9721;BME280;4899;42.644;23.366;2023-05-08T11:25:03;94370.56;;;28.76;43.37
9721;BME280;4899;42.644;23.366;2023-05-08T11:30:36;94355.88;;;28.88;39.53
9721;BME280;4899;42.644;23.366;2023-05-08T11:38:35;94339.72;;;31.81;37.48
9721;BME280;4899;42.644;23.366;2023-05-08T11:41:35;94360.31;;;32.63;37.56
9721;BME280;4899;42.644;23.366;2023-05-08T11:46:52;94309.72;;;33.80;33.41
9721;BME280;4899;42.644;23.366;2023-05-08T11:49:20;94325.69;;;34.67;34.36
9721;BME280;4899;42.644;23.366;2023-05-08T11:51:49;94331.63;;;34.71;33.71
9721;BME280;4899;42.644;23.366;2023-05-08T11:54:19;94321.63;;;35.30;32.93
9721;BME280;4899;42.644;23.366;2023-05-08T11:56:45;94320.44;;;35.16;32.47
9721;BME280;4899;42.644;23.366;2023-05-08T11:59:12;94323.16;;;34.87;32.95
9721;BME280;4899;42.644;23.366;2023-05-08T12:01:37;94310.97;;;34.86;32.39
9721;BME280;4899;42.644;23.366;2023-05-08T12:04:11;94285.25;;;34.89;30.90
9721;BME280;4899;42.644;23.366;2023-05-08T12:06:38;94305.22;;;35.37;31.76
9721;BME280;4899;42.644;23.366;2023-05-08T12:09:15;94292.25;;;34.18;31.08
9721;BME280;4899;42.644;23.366;2023-05-08T12:11:42;94325.97;;;32.83;33.57
9721;BME280;4899;42.644;23.366;2023-05-08T12:14:10;94327.75;;;32.04;33.63
9721;BME280;4899;42.644;23.366;2023-05-08T12:16:36;94327.78;;;30.61;35.62
9721;BME280;4899;42.644;23.366;2023-05-08T12:19:10;94317.63;;;29.78;35.75
9721;BME280;4899;42.644;23.366;2023-05-08T12:21:35;94302.59;;;29.12;36.71
9721;BME280;4899;42.644;23.366;2023-05-08T12:24:05;94300.56;;;28.90;36.81
9721;BME280;4899;42.644;23.366;2023-05-08T12:26:34;94296.06;;;28.04;37.85
9721;BME280;4899;42.644;23.366;2023-05-08T12:29:01;94292.75;;;27.51;38.43
9721;BME280;4899;42.644;23.366;2023-05-08T12:31:26;94275.50;;;27.14;39.18
9721;BME280;4899;42.644;23.366;2023-05-08T12:33:53;94272.97;;;26.71;38.89
9721;BME280;4899;42.644;23.366;2023-05-08T12:36:19;94259.72;;;26.15;39.76
9721;BME280;4899;42.644;23.366;2023-05-08T12:38:45;94259.38;;;25.69;40.63
9721;BME280;4899;42.644;23.366;2023-05-08T12:41:10;94256.38;;;25.21;41.20
9721;BME280;4899;42.644;23.366;2023-05-08T12:43:36;94270.56;;;25.00;41.89
9721;BME280;4899;42.644;23.366;2023-05-08T12:46:03;94249.97;;;24.64;41.95
9721;BME280;4899;42.644;23.366;2023-05-08T12:48:29;94265.97;;;24.46;42.90
9721;BME280;4899;42.644;23.366;2023-05-08T12:51:01;94280.69;;;24.06;43.84
9721;BME280;4899;42.644;23.366;2023-05-08T12:53:29;94262.25;;;25.05;41.96
9721;BME280;4899;42.644;23.366;2023-05-08T12:56:02;94259.16;;;25.60;42.90
9721;BME280;4899;42.644;23.366;2023-05-08T12:58:31;94254.06;;;24.96;43.49
9721;BME280;4899;42.644;23.366;2023-05-08T13:01:23;94249.59;;;24.35;46.27
9721;BME280;4899;42.644;23.366;2023-05-08T13:03:51;94249.22;;;23.96;46.51
9721;BME280;4899;42.644;23.366;2023-05-08T13:06:21;94247.34;;;23.58;46.27
9721;BME280;4899;42.644;23.366;2023-05-08T13:08:52;94262.34;;;23.58;46.83
9721;BME280;4899;42.644;23.366;2023-05-08T13:11:27;94247.78;;;23.91;47.07
9721;BME280;4899;42.644;23.366;2023-05-08T13:13:53;94250.69;;;25.22;44.86
9721;BME280;4899;42.644;23.366;2023-05-08T13:16:18;94229.09;;;24.50;46.25
9721;BME280;4899;42.644;23.366;2023-05-08T13:18:44;94266.28;;;23.80;47.90
9721;BME280;4899;42.644;23.366;2023-05-08T13:21:09;94266.72;;;23.20;49.52
9721;BME280;4899;42.644;23.366;2023-05-08T13:23:34;94277.00;;;22.96;50.15
9721;BME280;4899;42.644;23.366;2023-05-08T13:26:00;94277.53;;;22.63;51.02
9721;BME280;4899;42.644;23.366;2023-05-08T13:28:25;94275.84;;;22.10;52.79
9721;BME280;4899;42.644;23.366;2023-05-08T13:30:51;94264.63;;;21.88;53.24
9721;BME280;4899;42.644;23.366;2023-05-08T13:33:16;94268.00;;;21.67;54.53
9721;BME280;4899;42.644;23.366;2023-05-08T13:35:42;94269.50;;;21.54;56.38
9721;BME280;4899;42.644;23.366;2023-05-08T13:38:07;94261.31;;;21.34;57.36
9721;BME280;4899;42.644;23.366;2023-05-08T13:40:32;94279.16;;;21.04;60.09
9721;BME280;4899;42.644;23.366;2023-05-08T13:42:58;94279.53;;;20.88;62.11
9721;BME280;4899;42.644;23.366;2023-05-08T13:45:23;94285.06;;;20.62;67.04
9721;BME280;4899;42.644;23.366;2023-05-08T13:47:49;94293.22;;;20.49;74.37
9721;BME280;4899;42.644;23.366;2023-05-08T13:50:16;94295.41;;;20.40;71.18
9721;BME280;4899;42.644;23.366;2023-05-08T13:52:43;94296.78;;;20.20;77.69
9721;BME280;4899;42.644;23.366;2023-05-08T13:55:10;94306.06;;;20.10;84.34
9721;BME280;4899;42.644;23.366;2023-05-08T13:57:36;94307.56;;;20.15;80.17